Time;durP1;ratioP1;P1;durP2;ratioP2;P2;SDS_P1;SDS_P2;PMS_P1;PMS_P2;Temp;Humidity;BMP_temperature;BMP_pressure;BME280_temperature;BME280_humidity;BME280_pressure;Samples;Min_cycle;Max_cycle;Signal;HPM_P1;HPM_P2
2022/06/20 00:02:18;;;;;;;0.00;0.00;;;21.70;60.10;;;;;;4195221;28;20406;-70
2022/06/20 00:04:40;;;;;;;0.00;0.00;;;21.70;60.10;;;;;;4194362;28;20135;-68
2022/06/20 00:07:02;;;;;;;0.00;0.00;;;21.70;60.20;;;;;;4194862;28;20407;-70
2022/06/20 00:09:24;;;;;;;0.43;0.35;;;21.70;60.20;;;;;;4179876;28;20122;-69
2022/06/20 00:11:50;;;;;;;0.00;0.00;;;21.70;60.20;;;;;;4195084;28;20045;-68
2022/06/20 00:14:14;;;;;;;0.75;0.75;;;21.70;61.10;;;;;;4194805;28;20075;-69
2022/06/20 00:16:36;;;;;;;0.00;0.00;;;21.70;60.30;;;;;;4194035;28;20048;-69
2022/06/20 00:18:58;;;;;;;0.10;0.10;;;21.70;60.30;;;;;;4222234;28;20043;-69
2022/06/20 00:21:22;;;;;;;0.00;0.00;;;21.70;60.30;;;;;;4194542;28;20051;-69
2022/06/20 00:23:45;;;;;;;1.45;0.80;;;21.70;60.30;;;;;;4193121;28;20051;-66
2022/06/20 00:26:07;;;;;;;0.00;0.00;;;21.60;60.30;;;;;;4194832;28;20575;-65
2022/06/20 00:28:31;;;;;;;0.00;0.00;;;21.70;60.50;;;;;;4194465;28;20056;-66
2022/06/20 00:30:54;;;;;;;0.00;0.00;;;21.70;60.50;;;;;;4194388;28;20056;-70
2022/06/20 00:33:16;;;;;;;0.00;0.00;;;21.70;60.50;;;;;;4194248;28;20109;-71
2022/06/20 00:35:38;;;;;;;0.00;0.00;;;21.70;60.50;;;;;;4192878;28;20103;-69
2022/06/20 00:38:02;;;;;;;0.00;0.00;;;21.70;60.60;;;;;;4194969;28;20135;-69
2022/06/20 00:40:30;;;;;;;0.00;0.00;;;21.70;60.60;;;;;;4194615;28;20051;-69
2022/06/20 00:42:52;;;;;;;0.00;0.00;;;21.70;60.60;;;;;;4194874;28;20059;-70
2022/06/20 00:45:41;;;;;;;0.00;0.00;;;21.70;60.70;;;;;;4194654;28;20055;-69
2022/06/20 00:48:26;;;;;;;0.00;0.00;;;21.60;60.70;;;;;;4194382;28;20040;-68
2022/06/20 00:51:17;;;;;;;0.00;0.00;;;21.60;60.70;;;;;;4161618;28;20144;-69
2022/06/20 00:54:05;;;;;;;0.00;0.00;;;21.60;60.70;;;;;;4161115;28;20524;-68
2022/06/20 00:56:53;;;;;;;0.00;0.00;;;21.60;60.80;;;;;;4165374;28;20295;-68
2022/06/20 00:59:39;;;;;;;0.00;0.00;;;21.60;60.80;;;;;;4194259;28;20055;-67
2022/06/20 01:02:28;;;;;;;0.00;0.00;;;21.60;60.90;;;;;;4194728;28;20067;-68
2022/06/20 01:05:14;;;;;;;0.00;0.00;;;21.60;61.00;;;;;;4193604;28;20048;-68
2022/06/20 01:07:59;;;;;;;0.00;0.00;;;21.60;61.00;;;;;;4174994;28;20056;-69
2022/06/20 01:10:46;;;;;;;0.00;0.00;;;21.50;61.00;;;;;;4194028;28;20067;-68
2022/06/20 01:13:27;;;;;;;0.00;0.00;;;21.60;61.20;;;;;;4192645;28;20055;-68
2022/06/20 01:16:21;;;;;;;0.00;0.00;;;21.50;61.10;;;;;;4193584;28;20105;-68
2022/06/20 01:19:08;;;;;;;0.00;0.00;;;21.60;61.30;;;;;;4194299;28;20053;-69
2022/06/20 01:21:49;;;;;;;0.00;0.00;;;21.50;62.10;;;;;;4194290;28;20118;-69
2022/06/20 01:24:33;;;;;;;0.00;0.00;;;21.50;61.20;;;;;;4161220;28;20507;-68
2022/06/20 01:27:24;;;;;;;0.00;0.00;;;21.50;61.30;;;;;;4160733;28;20072;-67
2022/06/20 01:30:07;;;;;;;0.00;0.00;;;21.50;61.30;;;;;;4161087;28;20386;-69
2022/06/20 01:32:48;;;;;;;0.00;0.00;;;21.50;61.30;;;;;;4161200;28;20554;-71
2022/06/20 01:38:29;;;;;;;0.45;0.45;;;21.50;61.40;;;;;;4188954;28;20052;-71
2022/06/20 01:44:12;;;;;;;0.00;0.00;;;21.50;61.50;;;;;;4161105;28;20195;-69
2022/06/20 01:46:53;;;;;;;0.00;0.00;;;21.50;61.50;;;;;;4161231;28;20057;-69
2022/06/20 01:49:36;;;;;;;0.00;0.00;;;21.50;61.50;;;;;;4160421;28;20369;-68
2022/06/20 01:52:22;;;;;;;3.33;1.17;;;21.50;61.50;;;;;;4183912;28;20537;-69
2022/06/20 01:55:07;;;;;;;0.10;0.10;;;21.50;61.60;;;;;;4193877;28;20072;-68
2022/06/20 01:57:52;;;;;;;0.00;0.00;;;21.50;61.60;;;;;;4193440;28;20052;-69
2022/06/20 02:00:35;;;;;;;0.00;0.00;;;21.50;61.60;;;;;;4191879;28;20222;-69
2022/06/20 02:03:19;;;;;;;0.00;0.00;;;21.40;61.50;;;;;;4192524;28;20055;-69
2022/06/20 02:06:01;;;;;;;0.00;0.00;;;21.50;61.60;;;;;;4192864;28;20488;-69
2022/06/20 02:08:44;;;;;;;0.00;0.00;;;21.50;61.60;;;;;;4193254;28;20608;-69
2022/06/20 02:11:31;;;;;;;0.17;0.17;;;21.50;61.60;;;;;;4193538;28;20125;-67
2022/06/20 02:14:15;;;;;;;0.10;0.10;;;21.40;61.60;;;;;;4193437;28;20423;-69
2022/06/20 02:17:01;;;;;;;0.00;0.00;;;21.40;61.60;;;;;;4176090;28;20130;-69
2022/06/20 02:19:47;;;;;;;1.15;0.80;;;21.40;61.70;;;;;;4176116;28;20503;-69
2022/06/20 02:22:28;;;;;;;0.00;0.00;;;21.40;61.60;;;;;;4176641;28;20037;-70
2022/06/20 02:25:11;;;;;;;;;;;21.40;61.70;;;;;;4193517;28;20048;-70
2022/06/20 02:27:55;;;;;;;0.00;0.00;;;21.40;61.60;;;;;;4192984;28;20030;-69
2022/06/20 02:30:37;;;;;;;0.00;0.00;;;21.40;61.70;;;;;;4193187;28;20493;-69
2022/06/20 02:33:25;;;;;;;0.00;0.00;;;21.30;61.60;;;;;;4192668;28;20052;-70
2022/06/20 02:36:07;;;;;;;0.00;0.00;;;21.40;61.70;;;;;;4193072;28;20058;-70
2022/06/20 02:38:49;;;;;;;0.00;0.00;;;21.40;61.70;;;;;;4160360;28;20492;-70
2022/06/20 02:41:31;;;;;;;0.10;0.10;;;21.40;61.70;;;;;;4159434;28;20114;-70
2022/06/20 02:44:16;;;;;;;0.00;0.00;;;21.40;61.70;;;;;;4160084;28;20084;-70
2022/06/20 02:46:58;;;;;;;0.00;0.00;;;21.30;61.60;;;;;;4160160;28;20049;-70
2022/06/20 02:49:41;;;;;;;0.00;0.00;;;21.30;61.60;;;;;;4159533;28;20098;-69
2022/06/20 02:52:29;;;;;;;0.00;0.00;;;21.30;61.60;;;;;;4188521;28;20048;-69
2022/06/20 02:55:14;;;;;;;0.00;0.00;;;21.30;61.70;;;;;;4192323;28;20044;-68
2022/06/20 02:57:58;;;;;;;0.00;0.00;;;21.30;61.60;;;;;;4191485;28;20189;-70
2022/06/20 03:00:44;;;;;;;0.00;0.00;;;21.30;61.70;;;;;;4192625;28;20068;-69
2022/06/20 03:03:30;;;;;;;0.20;0.20;;;21.30;61.70;;;;;;4192628;28;20052;-69
2022/06/20 03:06:19;;;;;;;0.00;0.00;;;21.30;61.70;;;;;;4192731;28;20058;-69
2022/06/20 03:09:01;;;;;;;0.00;0.00;;;21.30;61.70;;;;;;4191108;28;20041;-69
2022/06/20 03:11:42;;;;;;;0.00;0.00;;;21.30;61.70;;;;;;4192763;28;20055;-69
2022/06/20 03:14:28;;;;;;;0.00;0.00;;;21.20;61.60;;;;;;4191994;28;20041;-69
2022/06/20 03:17:10;;;;;;;0.00;0.00;;;21.30;61.70;;;;;;4192760;28;20501;-69
2022/06/20 03:19:54;;;;;;;0.00;0.00;;;21.30;61.70;;;;;;4192867;28;20051;-69
2022/06/20 03:22:40;;;;;;;0.00;0.00;;;21.30;61.70;;;;;;4192396;28;20048;-69
2022/06/20 03:25:22;;;;;;;0.00;0.00;;;21.20;61.60;;;;;;4192648;28;20060;-70
2022/06/20 03:28:05;;;;;;;0.00;0.00;;;21.30;61.80;;;;;;4192497;28;20054;-69
2022/06/20 03:31:06;;;;;;;0.00;0.00;;;21.20;61.80;;;;;;4192199;28;20122;-70
2022/06/20 03:33:48;;;;;;;0.05;0.05;;;21.20;61.70;;;;;;4192123;28;20428;-70
2022/06/20 03:36:29;;;;;;;0.00;0.00;;;21.20;61.70;;;;;;4192252;28;20044;-69
2022/06/20 03:39:12;;;;;;;0.00;0.00;;;21.20;61.80;;;;;;4192005;28;20056;-70
2022/06/20 03:41:53;;;;;;;0.00;0.00;;;21.20;61.80;;;;;;4192224;28;20059;-70
2022/06/20 03:44:39;;;;;;;0.20;0.20;;;21.20;61.80;;;;;;4175574;28;20380;-69
2022/06/20 03:47:25;;;;;;;0.00;0.00;;;21.20;61.80;;;;;;4192094;28;20141;-69
2022/06/20 03:50:11;;;;;;;0.00;0.00;;;21.20;61.80;;;;;;4189852;28;20094;-69
2022/06/20 03:53:01;;;;;;;0.05;0.05;;;21.20;61.70;;;;;;4191833;28;20063;-69
2022/06/20 03:55:47;;;;;;;0.00;0.00;;;21.20;61.80;;;;;;4175315;28;20059;-69
2022/06/20 03:58:33;;;;;;;0.00;0.00;;;21.20;61.80;;;;;;4175839;28;20056;-69
2022/06/20 04:01:20;;;;;;;0.00;0.00;;;21.10;61.70;;;;;;4192083;28;20044;-69
2022/06/20 04:04:04;;;;;;;0.00;0.00;;;21.20;62.20;;;;;;4192081;28;20187;-69
2022/06/20 04:06:53;;;;;;;0.38;0.38;;;21.20;61.70;;;;;;4191579;28;20928;-68
2022/06/20 04:12:41;;;;;;;0.00;0.00;;;21.20;61.70;;;;;;4189940;28;20380;-68
2022/06/20 04:15:26;;;;;;;0.00;0.00;;;21.20;61.80;;;;;;4192264;28;20054;-69
2022/06/20 04:18:28;;;;;;;0.00;0.00;;;21.10;61.70;;;;;;4192223;28;20052;-69
2022/06/20 04:21:16;;;;;;;0.00;0.00;;;21.20;61.80;;;;;;4191681;28;20059;-68
2022/06/20 04:24:02;;;;;;;0.00;0.00;;;21.20;61.70;;;;;;4191209;28;20137;-68
2022/06/20 04:26:49;;;;;;;0.00;0.00;;;21.20;61.70;;;;;;4191875;28;20143;-68
2022/06/20 04:29:34;;;;;;;0.30;0.30;;;21.20;61.70;;;;;;4190610;28;20044;-65
2022/06/20 04:32:25;;;;;;;0.70;0.50;;;21.20;61.80;;;;;;4192251;28;20051;-65
2022/06/20 04:35:14;;;;;;;0.08;0.08;;;21.20;61.80;;;;;;4191680;28;20063;-69
2022/06/20 04:37:59;;;;;;;0.10;0.10;;;21.20;61.80;;;;;;4191537;28;20684;-70
2022/06/20 04:40:46;;;;;;;0.00;0.00;;;21.20;62.10;;;;;;4191310;28;20060;-70
2022/06/20 04:43:35;;;;;;;0.10;0.10;;;21.20;62.60;;;;;;4194155;28;20059;-70
2022/06/20 04:46:23;;;;;;;0.00;0.00;;;21.30;62.80;;;;;;4192676;28;20094;-70
2022/06/20 04:49:03;;;;;;;0.00;0.00;;;21.40;62.40;;;;;;4193707;28;20052;-70
2022/06/20 04:51:47;;;;;;;0.00;0.00;;;21.40;62.10;;;;;;4178641;28;20184;-69
2022/06/20 04:54:28;;;;;;;0.00;0.00;;;21.40;61.90;;;;;;4175902;28;20096;-69
2022/06/20 04:57:13;;;;;;;0.60;0.60;;;21.40;61.90;;;;;;4159942;28;20522;-65
2022/06/20 04:59:55;;;;;;;0.00;0.00;;;21.50;61.80;;;;;;4172322;28;20099;-66
2022/06/20 05:02:38;;;;;;;0.00;0.00;;;21.50;61.80;;;;;;4161111;28;20045;-64
2022/06/20 05:05:23;;;;;;;0.00;0.00;;;21.40;61.70;;;;;;4160778;28;20052;-67
2022/06/20 05:08:07;;;;;;;0.00;0.00;;;21.40;61.70;;;;;;4168311;28;20128;-64
2022/06/20 05:10:52;;;;;;;0.00;0.00;;;21.40;61.70;;;;;;4188209;28;20055;-66
2022/06/20 05:13:40;;;;;;;0.00;0.00;;;21.40;61.70;;;;;;4173206;28;20509;-66
2022/06/20 05:16:26;;;;;;;0.00;0.00;;;21.40;61.70;;;;;;4177284;28;20431;-66
2022/06/20 05:19:16;;;;;;;2.90;1.25;;;21.40;61.70;;;;;;4177290;28;20041;-66
2022/06/20 05:22:00;;;;;;;0.00;0.00;;;21.50;61.70;;;;;;4160376;28;20037;-65
2022/06/20 05:24:44;;;;;;;0.00;0.00;;;21.50;61.60;;;;;;4180367;28;20053;-66
2022/06/20 05:27:28;;;;;;;0.00;0.00;;;21.70;61.50;;;;;;4175090;28;20606;-66
2022/06/20 05:30:16;;;;;;;0.00;0.00;;;21.80;61.30;;;;;;4159227;28;20142;-66
2022/06/20 05:33:02;;;;;;;0.00;0.00;;;21.80;60.50;;;;;;4160771;28;20420;-65
2022/06/20 05:35:49;;;;;;;0.00;0.00;;;21.90;59.70;;;;;;4160570;28;20099;-65
2022/06/20 05:38:18;;;;;;;0.10;0.10;;;22.00;60.30;;;;;;4162055;28;20091;-65
2022/06/20 05:40:44;;;;;;;0.00;0.00;;;22.00;59.30;;;;;;4178501;28;20124;-66
2022/06/20 05:43:11;;;;;;;0.00;0.00;;;22.10;59.20;;;;;;4190948;28;20055;-66
2022/06/20 05:45:33;;;;;;;0.00;0.00;;;22.10;58.90;;;;;;4189351;28;20049;-66
2022/06/20 05:47:58;;;;;;;0.00;0.00;;;22.10;58.50;;;;;;4176656;28;20048;-66
2022/06/20 05:50:32;;;;;;;3.30;1.27;;;22.10;58.30;;;;;;4176503;28;20052;-65
2022/06/20 05:52:57;;;;;;;0.00;0.00;;;22.10;58.20;;;;;;4191648;28;20047;-65
2022/06/20 05:55:23;;;;;;;0.00;0.00;;;22.10;58.00;;;;;;4193048;28;20047;-65
2022/06/20 05:57:48;;;;;;;0.00;0.00;;;22.10;58.00;;;;;;4193347;28;20452;-65
2022/06/20 06:00:19;;;;;;;0.00;0.00;;;22.10;58.00;;;;;;4177693;28;20067;-65
2022/06/20 06:02:45;;;;;;;0.00;0.00;;;22.00;57.90;;;;;;4176713;28;20496;-65
2022/06/20 06:05:17;;;;;;;0.15;0.15;;;22.00;57.90;;;;;;4176436;28;20279;-66
2022/06/20 06:07:44;;;;;;;0.00;0.00;;;21.90;57.80;;;;;;4176480;28;20103;-65
2022/06/20 06:10:34;;;;;;;1.00;1.00;;;21.90;57.90;;;;;;4176587;28;20135;-69
2022/06/20 06:13:14;;;;;;;5.47;0.85;;;21.90;58.00;;;;;;4176448;28;20464;-69
2022/06/20 06:16:46;;;;;;;0.00;0.00;;;21.80;58.10;;;;;;4176461;28;20056;-69
2022/06/20 06:18:24;;;;;;;0.32;0.32;;;21.80;58.40;;;;;;4174598;28;20071;-69
2022/06/20 06:20:48;;;;;;;0.10;0.10;;;21.80;58.40;;;;;;4176181;28;20061;-68
2022/06/20 06:23:13;;;;;;;0.00;0.00;;;21.80;58.30;;;;;;4176347;28;20072;-69
2022/06/20 06:25:39;;;;;;;0.00;0.00;;;21.80;58.10;;;;;;4174651;28;20047;-68
2022/06/20 06:28:05;;;;;;;0.00;0.00;;;21.80;58.00;;;;;;4176313;28;20075;-68
2022/06/20 06:30:30;;;;;;;0.00;0.00;;;21.80;57.90;;;;;;4176067;28;20098;-67
2022/06/20 06:32:58;;;;;;;0.00;0.00;;;21.90;57.80;;;;;;4176428;28;20127;-68
2022/06/20 06:35:24;;;;;;;0.05;0.05;;;21.90;57.60;;;;;;4175859;28;20076;-68
2022/06/20 06:37:52;;;;;;;0.00;0.00;;;21.90;57.50;;;;;;4174367;28;20045;-68
2022/06/20 06:40:22;;;;;;;0.00;0.00;;;21.90;57.40;;;;;;4175695;28;20048;-68
2022/06/20 06:42:47;;;;;;;0.63;0.47;;;22.00;57.40;;;;;;4175812;28;20412;-68
2022/06/20 06:45:21;;;;;;;0.13;0.13;;;21.90;57.30;;;;;;4176127;28;20051;-68
2022/06/20 06:47:47;;;;;;;0.00;0.00;;;21.90;57.20;;;;;;4176089;28;20052;-68
2022/06/20 06:50:21;;;;;;;0.10;0.10;;;21.90;57.30;;;;;;4174479;28;20516;-68
2022/06/20 06:52:49;;;;;;;0.88;0.88;;;21.80;57.30;;;;;;4178459;28;20072;-68
2022/06/20 06:55:23;;;;;;;0.03;0.03;;;21.80;57.50;;;;;;4191847;28;20097;-68
2022/06/20 06:57:50;;;;;;;0.55;0.55;;;21.70;57.70;;;;;;4192264;28;20513;-67
2022/06/20 07:00:25;;;;;;;0.00;0.00;;;21.80;58.00;;;;;;4176741;28;20065;-68
2022/06/20 07:02:52;;;;;;;0.00;0.00;;;21.90;57.70;;;;;;4175874;28;20075;-67
2022/06/20 07:05:19;;;;;;;0.22;0.22;;;21.90;57.90;;;;;;4176256;28;20061;-68
2022/06/20 07:07:45;;;;;;;0.00;0.00;;;22.00;57.30;;;;;;4185769;28;20133;-67
2022/06/20 07:10:13;;;;;;;0.52;0.52;;;22.00;57.40;;;;;;4192093;28;20054;-68
2022/06/20 07:12:38;;;;;;;3.55;0.80;;;22.00;56.90;;;;;;4191871;28;20059;-67
2022/06/20 07:15:06;;;;;;;0.00;0.00;;;22.10;57.10;;;;;;4192299;28;20048;-68
2022/06/20 07:17:33;;;;;;;0.32;0.15;;;22.10;56.90;;;;;;4192631;28;20063;-68
2022/06/20 07:19:56;;;;;;;0.00;0.00;;;22.10;56.60;;;;;;4186851;28;20450;-68
2022/06/20 07:22:24;;;;;;;0.00;0.00;;;22.20;56.70;;;;;;4175652;28;20098;-68
2022/06/20 07:24:47;;;;;;;0.00;0.00;;;22.20;56.40;;;;;;4175695;28;20052;-67
2022/06/20 07:27:16;;;;;;;0.00;0.00;;;22.20;56.50;;;;;;4175439;28;20045;-67
2022/06/20 07:29:43;;;;;;;0.00;0.00;;;22.30;56.30;;;;;;4176981;28;20048;-68
2022/06/20 07:32:11;;;;;;;0.00;0.00;;;22.30;56.10;;;;;;4159175;28;20057;-68
2022/06/20 07:34:37;;;;;;;4.40;1.10;;;22.20;55.60;;;;;;4159169;28;20060;-68
2022/06/20 07:37:05;;;;;;;0.35;0.35;;;22.20;55.80;;;;;;4159075;28;20063;-68
2022/06/20 07:39:32;;;;;;;0.00;0.00;;;22.20;56.70;;;;;;4159179;28;20049;-68
2022/06/20 07:41:59;;;;;;;0.00;0.00;;;22.10;56.20;;;;;;4158977;28;20096;-68
2022/06/20 07:44:24;;;;;;;0.30;0.30;;;22.10;56.40;;;;;;4172492;28;20143;-68
2022/06/20 07:46:55;;;;;;;0.00;0.00;;;22.10;56.30;;;;;;4181451;28;20137;-68
2022/06/20 07:49:23;;;;;;;0.00;0.00;;;22.10;56.40;;;;;;4175003;28;20051;-69
2022/06/20 07:51:50;;;;;;;0.20;0.20;;;22.10;56.50;;;;;;4174625;28;20139;-68
2022/06/20 07:54:17;;;;;;;0.08;0.08;;;22.10;56.50;;;;;;4201549;28;20070;-67
2022/06/20 07:56:44;;;;;;;0.00;0.00;;;22.10;56.50;;;;;;4174834;28;20052;-69
2022/06/20 07:59:09;;;;;;;0.00;0.00;;;22.10;56.20;;;;;;4185676;28;20056;-68
2022/06/20 08:01:42;;;;;;;0.08;0.08;;;22.10;56.30;;;;;;4191788;28;20072;-67
2022/06/20 08:04:08;;;;;;;0.00;0.00;;;22.10;56.40;;;;;;4191637;28;20123;-68
2022/06/20 08:06:38;;;;;;;0.30;0.30;;;22.10;56.60;;;;;;4191159;28;20475;-68
2022/06/20 08:09:06;;;;;;;0.00;0.00;;;22.10;56.50;;;;;;4191102;28;20055;-68
2022/06/20 08:11:42;;;;;;;0.00;0.00;;;22.10;57.30;;;;;;4191646;28;20052;-68
2022/06/20 08:14:09;;;;;;;0.00;0.00;;;22.10;55.70;;;;;;4186511;28;20561;-68
2022/06/20 08:16:32;;;;;;;0.00;0.00;;;22.10;56.20;;;;;;4191591;28;20076;-68
2022/06/20 08:18:55;;;;;;;0.00;0.00;;;22.10;55.70;;;;;;4194748;28;20051;-68
2022/06/20 08:21:22;;;;;;;0.00;0.00;;;22.10;55.90;;;;;;4194798;28;20049;-68
2022/06/20 08:23:49;;;;;;;0.80;0.57;;;22.10;55.90;;;;;;4194606;28;20059;-68
2022/06/20 08:26:18;;;;;;;0.00;0.00;;;22.10;56.00;;;;;;4194037;28;20127;-69
2022/06/20 08:28:45;;;;;;;0.08;0.08;;;22.20;55.90;;;;;;4193911;28;20092;-68
2022/06/20 08:31:14;;;;;;;0.00;0.00;;;22.20;55.80;;;;;;4195106;28;20475;-68
2022/06/20 08:33:42;;;;;;;0.00;0.00;;;22.20;56.40;;;;;;4194790;28;20044;-69
2022/06/20 08:36:17;;;;;;;0.00;0.00;;;22.20;56.00;;;;;;4194638;28;20071;-68
2022/06/20 08:38:45;;;;;;;0.00;0.00;;;22.20;55.70;;;;;;4194626;28;20045;-69
2022/06/20 08:41:29;;;;;;;4.95;2.75;;;22.20;56.00;;;;;;4194004;28;20060;-69
2022/06/20 08:44:29;;;;;;;0.00;0.00;;;22.20;56.00;;;;;;4188426;28;20072;-69
2022/06/20 08:47:33;;;;;;;1.35;1.35;;;22.20;56.40;;;;;;4191115;28;20079;-69
2022/06/20 08:50:39;;;;;;;1.67;1.25;;;22.10;56.50;;;;;;4194028;28;20135;-69
2022/06/20 08:53:42;;;;;;;0.00;0.00;;;22.10;56.70;;;;;;4193896;28;20044;-69
2022/06/20 08:56:19;;;;;;;0.10;0.10;;;22.10;56.50;;;;;;4179466;28;20102;-69
2022/06/20 08:58:57;;;;;;;0.00;0.00;;;22.00;56.50;;;;;;4161272;28;20520;-68
2022/06/20 09:01:27;;;;;;;0.00;0.00;;;22.00;56.70;;;;;;4174000;28;20119;-69
2022/06/20 09:04:20;;;;;;;0.00;0.00;;;22.00;56.60;;;;;;4161155;28;20053;-69
2022/06/20 09:07:22;;;;;;;0.00;0.00;;;22.00;56.50;;;;;;4160536;28;20053;-68
2022/06/20 09:10:05;;;;;;;0.00;0.00;;;22.00;55.90;;;;;;4142581;28;20052;-68
2022/06/20 09:12:43;;;;;;;0.00;0.00;;;22.00;55.70;;;;;;4173770;28;20048;-68
2022/06/20 09:15:32;;;;;;;0.00;0.00;;;22.00;56.00;;;;;;4144319;28;20062;-69
2022/06/20 09:18:00;;;;;;;0.00;0.00;;;22.00;55.80;;;;;;4144602;28;20058;-69
2022/06/20 09:20:30;;;;;;;0.70;0.47;;;22.00;56.00;;;;;;4143099;28;20116;-69
2022/06/20 09:23:12;;;;;;;0.00;0.00;;;22.00;56.10;;;;;;4144612;28;20092;-70
2022/06/20 09:25:42;;;;;;;0.00;0.00;;;22.00;55.90;;;;;;4144469;28;20053;-69
2022/06/20 09:28:24;;;;;;;0.00;0.00;;;22.00;55.60;;;;;;4160872;28;20106;-70
2022/06/20 09:30:59;;;;;;;0.00;0.00;;;22.00;55.90;;;;;;4175974;28;20128;-69
2022/06/20 09:33:43;;;;;;;0.00;0.00;;;22.00;55.60;;;;;;4175534;28;20055;-69
2022/06/20 09:36:44;;;;;;;0.00;0.00;;;22.00;55.70;;;;;;4167828;28;20079;-69
2022/06/20 09:39:34;;;;;;;0.00;0.00;;;22.00;55.30;;;;;;4160229;28;20061;-69
2022/06/20 09:42:01;;;;;;;0.00;0.00;;;22.10;55.60;;;;;;4160791;28;20132;-70
2022/06/20 09:44:31;;;;;;;0.00;0.00;;;22.10;55.50;;;;;;4160411;28;20131;-70
2022/06/20 09:47:03;;;;;;;0.00;0.00;;;22.10;55.60;;;;;;4160289;28;20129;-69
2022/06/20 09:49:36;;;;;;;0.10;0.10;;;22.10;55.40;;;;;;4160444;28;20046;-69
2022/06/20 09:52:06;;;;;;;5.15;3.75;;;22.10;55.40;;;;;;4164495;28;20136;-70
2022/06/20 09:54:30;;;;;;;;;;;22.10;55.30;;;;;;4175815;28;20148;-70
2022/06/20 09:57:03;;;;;;;0.00;0.00;;;22.10;55.30;;;;;;4160899;28;20475;-69
2022/06/20 09:59:34;;;;;;;0.00;0.00;;;22.10;55.50;;;;;;4160429;28;20111;-70
2022/06/20 10:02:06;;;;;;;0.38;0.38;;;22.10;55.40;;;;;;4160072;28;20045;-70
2022/06/20 10:04:38;;;;;;;0.00;0.00;;;22.10;54.80;;;;;;4160172;28;20485;-70
2022/06/20 10:07:30;;;;;;;1.17;1.17;;;22.10;55.30;;;;;;4159998;28;20061;-69
2022/06/20 10:10:06;;;;;;;0.00;0.00;;;22.20;55.10;;;;;;4160164;28;20060;-69
2022/06/20 10:12:38;;;;;;;1.27;1.17;;;22.10;55.70;;;;;;4159975;28;20052;-69
2022/06/20 10:15:09;;;;;;;0.00;0.00;;;22.20;55.40;;;;;;4161775;28;20546;-69
2022/06/20 10:17:42;;;;;;;0.00;0.00;;;22.20;56.20;;;;;;4176611;28;20045;-70
2022/06/20 10:20:16;;;;;;;0.00;0.00;;;22.20;55.40;;;;;;4176356;28;20052;-70
2022/06/20 10:22:47;;;;;;;0.03;0.03;;;22.20;55.70;;;;;;4176517;28;20393;-70
2022/06/20 10:25:33;;;;;;;0.38;0.38;;;22.20;55.50;;;;;;4175865;28;20061;-70
2022/06/20 10:28:08;;;;;;;0.00;0.00;;;22.20;55.60;;;;;;4192105;28;20122;-70
2022/06/20 10:30:43;;;;;;;0.00;0.00;;;22.20;55.60;;;;;;4191899;28;20052;-71
2022/06/20 10:33:30;;;;;;;0.10;0.10;;;22.20;55.20;;;;;;4191348;28;20059;-71
2022/06/20 10:35:59;;;;;;;0.00;0.00;;;22.20;55.30;;;;;;4193139;28;20101;-69
2022/06/20 10:38:32;;;;;;;0.00;0.00;;;22.20;55.00;;;;;;4191689;28;20052;-66
2022/06/20 10:41:04;;;;;;;0.00;0.00;;;22.20;54.90;;;;;;4190014;28;20485;-64
2022/06/20 10:43:36;;;;;;;0.00;0.00;;;22.20;55.00;;;;;;4157960;28;20050;-65
2022/06/20 10:46:03;;;;;;;0.00;0.00;;;22.20;54.60;;;;;;4158787;28;20057;-66
2022/06/20 10:48:50;;;;;;;0.00;0.00;;;22.20;54.50;;;;;;4158605;28;20060;-65
2022/06/20 10:51:23;;;;;;;0.00;0.00;;;22.20;54.90;;;;;;4179750;28;20412;-64
2022/06/20 10:53:58;;;;;;;0.00;0.00;;;22.20;54.90;;;;;;4185642;28;20048;-65
2022/06/20 10:56:29;;;;;;;0.17;0.17;;;22.20;55.10;;;;;;4189449;28;20059;-65
2022/06/20 10:59:05;;;;;;;0.00;0.00;;;22.20;55.40;;;;;;4191341;28;20059;-69
2022/06/20 11:01:36;;;;;;;2.65;0.35;;;22.20;55.90;;;;;;4192434;28;20070;-69
2022/06/20 11:04:24;;;;;;;0.00;0.00;;;22.30;56.00;;;;;;4192333;28;20403;-64
2022/06/20 11:06:59;;;;;;;0.00;0.00;;;22.30;56.50;;;;;;4159366;28;20053;-64
2022/06/20 11:09:29;;;;;;;0.03;0.03;;;22.30;55.80;;;;;;4159139;28;20489;-64
2022/06/20 11:11:58;;;;;;;0.00;0.00;;;22.30;55.80;;;;;;4159474;28;20582;-64
2022/06/20 11:14:27;;;;;;;0.17;0.17;;;22.30;55.60;;;;;;4185999;28;20055;-64
2022/06/20 11:17:00;;;;;;;0.00;0.00;;;22.30;55.60;;;;;;4158984;28;20058;-65
2022/06/20 11:19:39;;;;;;;0.73;0.73;;;22.40;56.10;;;;;;4171104;27;20056;-64
2022/06/20 11:22:14;;;;;;;0.17;0.17;;;22.40;56.20;;;;;;4189295;28;20075;-63
2022/06/20 11:24:47;;;;;;;0.47;0.47;;;22.40;56.10;;;;;;4188770;28;20153;-64
2022/06/20 11:27:33;;;;;;;0.28;0.28;;;22.40;56.00;;;;;;4174887;28;20568;-64
2022/06/20 11:30:06;;;;;;;0.63;0.63;;;22.40;55.90;;;;;;4170582;28;20571;-63
2022/06/20 11:32:39;;;;;;;0.35;0.35;;;22.40;55.90;;;;;;4175644;28;20048;-64
2022/06/20 11:35:21;;;;;;;0.00;0.00;;;22.40;55.40;;;;;;4169482;28;20048;-63
2022/06/20 11:37:56;;;;;;;0.00;0.00;;;22.40;55.50;;;;;;4175753;28;20049;-64
2022/06/20 11:40:39;;;;;;;0.00;0.00;;;22.40;55.40;;;;;;4174486;28;20126;-63
2022/06/20 11:43:26;;;;;;;0.00;0.00;;;22.40;55.00;;;;;;4173815;28;20115;-64
2022/06/20 11:46:01;;;;;;;0.00;0.00;;;22.40;55.90;;;;;;4185780;28;20064;-64
2022/06/20 11:48:36;;;;;;;0.00;0.00;;;22.40;55.10;;;;;;4190108;28;20162;-64
2022/06/20 11:51:05;;;;;;;0.00;0.00;;;22.50;55.00;;;;;;4190483;28;20053;-64
2022/06/20 11:53:51;;;;;;;0.00;0.00;;;22.50;55.00;;;;;;4192628;28;20052;-64
2022/06/20 11:56:22;;;;;;;0.00;0.00;;;22.50;54.50;;;;;;4188294;27;20036;-64
2022/06/20 11:59:16;;;;;;;0.10;0.10;;;22.50;54.20;;;;;;4178686;28;20123;-64
2022/06/20 12:01:46;;;;;;;0.00;0.00;;;22.50;54.00;;;;;;4159812;28;20055;-64
2022/06/20 12:04:15;;;;;;;0.00;0.00;;;22.40;54.10;;;;;;4160562;28;20076;-64
2022/06/20 12:06:46;;;;;;;0.22;0.22;;;22.50;54.10;;;;;;4168168;28;20084;-64
2022/06/20 12:09:16;;;;;;;0.55;0.55;;;22.40;53.70;;;;;;4194697;28;20058;-64
2022/06/20 12:11:54;;;;;;;0.00;0.00;;;22.40;54.00;;;;;;4193379;28;20884;-65
2022/06/20 12:14:30;;;;;;;0.00;0.00;;;22.40;54.20;;;;;;4194884;28;20480;-64
2022/06/20 12:17:01;;;;;;;0.00;0.00;;;22.40;54.30;;;;;;4191842;28;20045;-64
2022/06/20 12:25:23;;;;;;;0.00;0.00;;;22.30;54.60;;;;;;4194866;28;20457;-64
2022/06/20 12:27:46;;;;;;;0.00;0.00;;;22.30;54.60;;;;;;4196981;28;20072;-64
2022/06/20 12:30:13;;;;;;;0.00;0.00;;;22.30;54.70;;;;;;4195406;28;20055;-64
2022/06/20 12:32:36;;;;;;;0.00;0.00;;;22.30;54.90;;;;;;4180019;28;20048;-64
2022/06/20 12:35:02;;;;;;;0.52;0.40;;;22.30;54.70;;;;;;4161369;28;20107;-64
2022/06/20 12:37:33;;;;;;;0.00;0.00;;;22.30;54.70;;;;;;4161620;28;20053;-64
2022/06/20 12:40:01;;;;;;;0.03;0.03;;;22.30;54.80;;;;;;4176901;28;20064;-64
2022/06/20 12:42:30;;;;;;;0.00;0.00;;;22.30;54.70;;;;;;4178097;28;20056;-65
2022/06/20 12:45:03;;;;;;;0.15;0.15;;;22.30;54.30;;;;;;4177581;28;20048;-65
2022/06/20 12:47:50;;;;;;;0.00;0.00;;;22.30;54.50;;;;;;4177547;28;20053;-65
2022/06/20 12:50:23;;;;;;;0.20;0.20;;;22.30;54.50;;;;;;4192376;28;20165;-64
2022/06/20 12:53:05;;;;;;;0.20;0.20;;;22.30;54.50;;;;;;4194080;28;20214;-63
2022/06/20 12:55:41;;;;;;;0.00;0.00;;;22.30;54.60;;;;;;4181938;28;20048;-68
2022/06/20 12:58:25;;;;;;;0.10;0.10;;;22.30;54.60;;;;;;4194148;28;20052;-69
2022/06/20 13:00:52;;;;;;;0.10;0.10;;;22.30;54.60;;;;;;4191032;28;20062;-71
2022/06/20 13:03:47;;;;;;;0.47;0.47;;;22.30;54.70;;;;;;4201354;28;20117;-71
2022/06/20 13:06:44;;;;;;;0.35;0.35;;;22.30;54.60;;;;;;4158973;28;20050;-70
2022/06/20 13:09:30;;;;;;;0.00;0.00;;;22.30;54.90;;;;;;4157873;28;20567;-64
2022/06/20 13:12:00;;;;;;;0.00;0.00;;;22.30;54.90;;;;;;4144740;28;20046;-65
2022/06/20 13:14:46;;;;;;;0.10;0.10;;;22.30;55.00;;;;;;4143287;28;20085;-65
2022/06/20 13:17:32;;;;;;;0.00;0.00;;;22.40;55.00;;;;;;4144804;28;20485;-65
2022/06/20 13:20:21;;;;;;;0.00;0.00;;;22.40;54.70;;;;;;4179375;28;20131;-64
2022/06/20 13:22:50;;;;;;;0.00;0.00;;;22.40;54.60;;;;;;4192836;28;20044;-65
2022/06/20 13:25:26;;;;;;;0.00;0.00;;;22.50;54.30;;;;;;4193774;28;20441;-65
2022/06/20 13:27:53;;;;;;;0.00;0.00;;;22.50;54.40;;;;;;4193887;28;20044;-65
2022/06/20 13:30:21;;;;;;;0.45;0.43;;;22.50;54.30;;;;;;4193850;28;20055;-64
2022/06/20 13:32:49;;;;;;;0.00;0.00;;;22.50;54.30;;;;;;4190811;28;20072;-63
2022/06/20 13:35:19;;;;;;;0.10;0.10;;;22.50;54.30;;;;;;4175908;28;20059;-65
2022/06/20 13:38:02;;;;;;;0.00;0.00;;;22.50;54.20;;;;;;4175432;28;20045;-65
2022/06/20 13:40:44;;;;;;;0.00;0.00;;;22.60;54.10;;;;;;4192381;28;20099;-64
2022/06/20 13:43:41;;;;;;;1.15;0.98;;;22.60;54.00;;;;;;4189656;28;20106;-65
2022/06/20 13:46:19;;;;;;;1.52;0.85;;;22.60;54.00;;;;;;4189404;28;20056;-64
2022/06/20 13:48:49;;;;;;;0.00;0.00;;;22.70;54.70;;;;;;4190267;28;20149;-65
2022/06/20 13:51:38;;;;;;;0.00;0.00;;;22.70;53.80;;;;;;4157956;28;20077;-65
2022/06/20 13:54:06;;;;;;;0.00;0.00;;;22.70;54.60;;;;;;4159105;28;20103;-65